Time;durP1;ratioP1;P1;durP2;ratioP2;P2;SDS_P1;SDS_P2;PMS_P1;PMS_P2;Temp;Humidity;BMP_temperature;BMP_pressure;BME280_temperature;BME280_humidity;BME280_pressure;Samples;Min_cycle;Max_cycle;Signal;HPM_P1;HPM_P2
2023/01/06 00:01:04;;;;;;;3.42;1.35;;;;;;;14.49;68.92;101787.28;5000085;28;20053;-41
2023/01/06 00:03:29;;;;;;;4.03;1.67;;;;;;;14.14;69.31;101783.31;5003537;28;20322;-41
2023/01/06 00:05:59;;;;;;;6.00;1.77;;;;;;;14.24;69.54;101782.56;4999866;28;20046;-41
2023/01/06 00:08:25;;;;;;;4.32;1.90;;;;;;;14.16;70.00;101784.19;5003722;28;20038;-42
2023/01/06 00:10:50;;;;;;;6.10;2.00;;;;;;;14.01;70.40;101777.03;4997606;28;20116;-40
2023/01/06 00:13:16;;;;;;;7.60;2.30;;;;;;;14.20;69.89;101779.03;5002118;28;20269;-41
2023/01/06 00:15:41;;;;;;;6.35;2.20;;;;;;;13.98;71.15;101776.97;4999772;28;20140;-41
2023/01/06 00:18:06;;;;;;;5.30;2.42;;;;;;;14.40;69.66;101776.66;5003313;28;20069;-41
2023/01/06 00:20:33;;;;;;;4.75;2.38;;;;;;;14.33;70.42;101785.31;5003001;28;20448;-42
2023/01/06 00:22:58;;;;;;;6.50;2.65;;;;;;;14.44;69.63;101781.13;5000049;28;20506;-41
2023/01/06 00:25:23;;;;;;;6.18;2.60;;;;;;;14.47;69.57;101775.00;5004084;28;20072;-41
2023/01/06 00:27:49;;;;;;;10.18;3.10;;;;;;;14.43;69.54;101781.97;5001518;28;20034;-41
2023/01/06 00:30:14;;;;;;;9.30;3.70;;;;;;;14.07;70.78;101774.50;5008560;28;20041;-41
2023/01/06 00:32:39;;;;;;;7.63;3.20;;;;;;;14.29;70.03;101774.75;5006755;28;20046;-40
2023/01/06 00:35:05;;;;;;;9.35;3.78;;;;;;;14.13;70.85;101773.69;5009688;28;20145;-44
2023/01/06 00:37:30;;;;;;;5.68;3.20;;;;;;;14.43;69.73;101768.84;5008761;28;20038;-41
2023/01/06 00:39:56;;;;;;;7.03;3.78;;;;;;;13.97;70.84;101761.22;5003250;28;20045;-40
2023/01/06 00:42:23;;;;;;;6.47;3.35;;;;;;;13.98;70.93;101758.63;5006004;28;20042;-42
2023/01/06 00:44:49;;;;;;;8.35;3.83;;;;;;;14.29;70.33;101764.25;5002654;28;20060;-43
2023/01/06 00:47:14;;;;;;;7.03;3.40;;;;;;;14.10;70.29;101758.78;5009017;28;20530;-41
2023/01/06 00:49:40;;;;;;;6.93;3.70;;;;;;;13.80;71.79;101760.97;5007434;28;20037;-40
2023/01/06 00:52:05;;;;;;;7.07;4.30;;;;;;;14.01;71.23;101744.69;5009149;28;20060;-41
2023/01/06 00:54:30;;;;;;;10.82;4.40;;;;;;;14.40;69.50;101742.56;5006398;28;20454;-41
2023/01/06 00:56:56;;;;;;;7.85;4.15;;;;;;;14.18;70.53;101745.78;5002345;28;20233;-43
2023/01/06 00:59:23;;;;;;;7.70;4.18;;;;;;;13.76;71.81;101733.88;5006017;28;20038;-42
2023/01/06 01:01:51;;;;;;;8.57;4.13;;;;;;;14.13;70.18;101740.47;5001159;28;20088;-41
2023/01/06 01:04:16;;;;;;;6.18;3.40;;;;;;;14.26;70.00;101738.88;5005646;28;20044;-43
2023/01/06 01:06:43;;;;;;;7.43;3.00;;;;;;;14.16;70.31;101739.63;5002115;28;20029;-42
2023/01/06 01:09:12;;;;;;;7.80;3.20;;;;;;;14.27;70.31;101737.16;5005726;28;20037;-42
2023/01/06 01:14:21;;;;;;;8.85;3.10;;;;;;;14.18;70.04;101725.69;5007240;28;20100;-44
2023/01/06 01:16:47;;;;;;;6.35;2.78;;;;;;;14.33;69.56;101725.00;5003410;28;20442;-43
2023/01/06 01:19:13;;;;;;;7.75;3.00;;;;;;;13.92;70.18;101721.84;5007022;28;20038;-43
2023/01/06 01:21:38;;;;;;;6.07;2.88;;;;;;;14.42;68.96;101717.25;5004151;28;20038;-42
2023/01/06 01:24:04;;;;;;;9.15;2.80;;;;;;;13.97;69.84;101721.88;5009860;28;20030;-40
2023/01/06 01:26:29;;;;;;;7.18;2.80;;;;;;;14.09;70.08;101717.69;5009744;28;20045;-41
2023/01/06 01:28:55;;;;;;;6.05;2.90;;;;;;;13.94;70.20;101714.00;5006235;28;20041;-38
2023/01/06 01:31:20;;;;;;;7.25;2.78;;;;;;;14.40;68.74;101716.34;5009238;28;20414;-41
2023/01/06 01:33:46;;;;;;;7.85;2.90;;;;;;;14.01;69.79;101713.22;5006229;28;20069;-41
2023/01/06 01:36:15;;;;;;;6.30;3.00;;;;;;;14.03;69.61;101699.25;5009636;28;20041;-41
2023/01/06 01:38:41;;;;;;;5.22;2.72;;;;;;;14.08;68.39;101707.19;5002538;28;20128;-39
2023/01/06 01:41:12;;;;;;;7.38;2.70;;;;;;;14.45;67.74;101692.78;5003929;28;20157;-42
2023/01/06 01:43:43;;;;;;;7.45;2.97;;;;;;;13.86;69.71;101692.03;5001446;28;20041;-43
2023/01/06 01:46:09;;;;;;;5.85;2.80;;;;;;;14.46;67.94;101699.78;5005063;28;20059;-42
2023/01/06 01:48:36;;;;;;;4.70;2.40;;;;;;;14.22;68.47;101679.38;5001256;28;20034;-56
2023/01/06 01:51:05;;;;;;;5.75;2.40;;;;;;;14.09;68.83;101672.22;5004024;28;20033;-44
2023/01/06 01:53:37;;;;;;;5.00;2.50;;;;;;;14.23;68.34;101674.16;5004568;28;20113;-41
2023/01/06 01:56:07;;;;;;;6.43;2.40;;;;;;;14.32;67.78;101665.50;5000246;28;20046;-40
2023/01/06 01:58:40;;;;;;;4.88;2.30;;;;;;;14.04;68.64;101672.19;5004718;28;20037;-42
2023/01/06 02:01:08;;;;;;;4.67;2.60;;;;;;;13.70;69.39;101676.13;5000390;28;20042;-41
2023/01/06 02:03:33;;;;;;;4.25;2.25;;;;;;;14.07;68.16;101666.97;5004238;28;20046;-43
2023/01/06 02:06:02;;;;;;;4.38;2.40;;;;;;;14.33;67.80;101658.53;5000815;28;20376;-40
2023/01/06 02:08:37;;;;;;;5.78;2.20;;;;;;;14.31;67.29;101660.25;5004732;28;20045;-41
2023/01/06 02:11:02;;;;;;;;;;;;;;;14.13;67.84;101663.53;5000362;28;20065;-41
2023/01/06 02:13:29;;;;;;;5.82;2.28;;;;;;;14.37;66.84;101655.06;5004625;28;19948;-40
2023/01/06 02:16:21;;;;;;;4.80;2.13;;;;;;;14.30;67.06;101655.84;5000937;28;20034;-43
2023/01/06 02:19:05;;;;;;;5.72;2.20;;;;;;;14.44;66.15;101651.69;5000192;28;20034;-40
2023/01/06 02:21:39;;;;;;;5.18;2.28;;;;;;;14.22;66.61;101630.41;5003483;28;20038;-41
2023/01/06 02:24:33;;;;;;;4.63;2.22;;;;;;;13.98;67.50;101647.63;5000689;28;20049;-41
2023/01/06 02:27:32;;;;;;;7.90;2.03;;;;;;;14.32;66.38;101641.03;4976822;28;20084;-41
2023/01/06 02:30:03;;;;;;;5.05;2.10;;;;;;;14.03;66.96;101649.44;4999564;28;20364;-42
2023/01/06 02:33:08;;;;;;;5.55;1.95;;;;;;;14.27;66.47;101625.25;5002327;28;20092;-41
2023/01/06 02:35:52;;;;;;;4.97;1.80;;;;;;;14.23;66.36;101631.31;4978320;28;20042;-41
2023/01/06 02:38:17;;;;;;;5.93;1.77;;;;;;;14.16;66.32;101605.88;4998820;28;20042;-42
2023/01/06 02:40:58;;;;;;;5.38;1.70;;;;;;;14.09;66.42;101607.56;4999582;28;20164;-38
2023/01/06 02:43:41;;;;;;;7.55;1.98;;;;;;;14.21;66.09;101607.69;5003892;28;20068;-43
2023/01/06 02:46:21;;;;;;;8.50;1.90;;;;;;;14.49;65.12;101597.50;5001642;28;20042;-38
2023/01/06 02:48:58;;;;;;;5.75;1.70;;;;;;;14.52;65.04;101595.75;5004476;28;20092;-41
2023/01/06 02:51:35;;;;;;;3.38;1.67;;;;;;;14.20;65.88;101582.34;5005368;28;20084;-42
2023/01/06 02:54:15;;;;;;;3.90;1.52;;;;;;;14.16;65.79;101598.88;5000149;28;20038;-40
2023/01/06 02:56:48;;;;;;;5.82;1.65;;;;;;;14.38;65.49;101586.03;5004732;28;20049;-41
2023/01/06 02:59:24;;;;;;;3.83;1.67;;;;;;;14.30;65.42;101595.53;5007413;28;20064;-41
2023/01/06 03:01:53;;;;;;;5.75;1.70;;;;;;;14.43;64.97;101594.81;4999070;28;20053;-42
2023/01/06 03:04:23;;;;;;;3.35;1.67;;;;;;;14.33;65.28;101572.84;5003775;28;20039;-43
2023/01/06 03:06:51;;;;;;;3.63;1.60;;;;;;;14.15;65.53;101577.88;4999773;28;20034;-41
2023/01/06 03:09:28;;;;;;;4.38;1.55;;;;;;;14.40;65.03;101579.03;5003981;28;20064;-41
2023/01/06 03:11:53;;;;;;;5.40;1.60;;;;;;;14.12;65.77;101572.63;4998985;28;20037;-41
2023/01/06 03:14:30;;;;;;;5.05;1.50;;;;;;;14.16;65.70;101567.41;5004249;28;20534;-41
2023/01/06 03:16:56;;;;;;;4.32;1.40;;;;;;;14.26;65.27;101564.91;5000475;28;20095;-40
2023/01/06 03:19:23;;;;;;;5.38;1.50;;;;;;;13.87;66.31;101541.78;5005683;28;20035;-42
2023/01/06 03:21:50;;;;;;;5.97;1.55;;;;;;;14.13;65.64;101564.78;5000458;28;20068;-42
2023/01/06 03:24:16;;;;;;;3.65;1.63;;;;;;;14.32;64.91;101550.09;5005527;28;20041;-40
2023/01/06 03:26:44;;;;;;;4.15;1.60;;;;;;;14.07;65.69;101550.72;5004871;28;20033;-43
2023/01/06 03:29:12;;;;;;;5.72;1.63;;;;;;;13.86;66.40;101535.66;5009461;28;20029;-41
2023/01/06 03:31:49;;;;;;;5.00;1.55;;;;;;;13.88;66.30;101535.69;5002029;28;20030;-44
2023/01/06 03:34:54;;;;;;;5.63;1.73;;;;;;;14.36;65.58;101538.75;5007696;28;20165;-42
2023/01/06 03:37:43;;;;;;;4.35;1.52;;;;;;;14.02;66.70;101531.47;5004588;28;20141;-43
2023/01/06 03:40:11;;;;;;;5.57;1.70;;;;;;;14.13;66.28;101533.31;5003358;28;20372;-42
2023/01/06 03:45:41;;;;;;;5.25;1.70;;;;;;;13.94;66.33;101527.88;5003573;28;20044;-48
2023/01/06 03:48:33;;;;;;;3.83;1.60;;;;;;;14.28;65.74;101537.81;5000919;28;20111;-43
2023/01/06 03:51:04;;;;;;;4.00;1.60;;;;;;;14.22;66.25;101529.88;4993165;28;20391;-43
2023/01/06 03:53:42;;;;;;;5.57;1.50;;;;;;;13.46;68.69;101513.38;5005752;28;20089;-41
2023/01/06 03:56:16;;;;;;;4.10;1.63;;;;;;;13.84;67.57;101521.69;5000397;28;20038;-40
2023/01/06 03:58:45;;;;;;;5.22;1.63;;;;;;;14.52;65.45;101513.53;4999544;28;20030;-41
2023/01/06 04:01:12;;;;;;;4.88;1.80;;;;;;;13.64;67.49;101512.72;5002837;28;20038;-42
2023/01/06 04:03:37;;;;;;;5.40;2.25;;;;;;;13.89;67.40;101516.47;5000513;28;20034;-45
2023/01/06 04:06:03;;;;;;;4.20;1.75;;;;;;;14.10;66.58;101503.56;5005058;28;20068;-41
2023/01/06 04:08:28;;;;;;;3.95;1.70;;;;;;;13.75;67.60;101490.13;5006643;28;20087;-44
2023/01/06 04:10:53;;;;;;;4.35;1.88;;;;;;;13.69;68.26;101516.25;5002061;28;20042;-45
2023/01/06 04:13:19;;;;;;;3.45;1.80;;;;;;;14.01;67.17;101501.75;5005303;28;20257;-43
2023/01/06 04:15:44;;;;;;;4.20;1.65;;;;;;;14.05;67.01;101502.63;5005007;28;20678;-42
2023/01/06 04:18:09;;;;;;;6.45;1.77;;;;;;;13.72;68.13;101511.06;5008286;28;20044;-45
2023/01/06 04:20:35;;;;;;;4.07;1.65;;;;;;;14.19;67.09;101496.66;5004485;28;20042;-40
2023/01/06 04:23:00;;;;;;;3.80;1.65;;;;;;;13.96;67.52;101487.72;5009192;28;20042;-42
2023/01/06 04:25:25;;;;;;;4.47;1.70;;;;;;;13.98;67.47;101482.47;5008365;28;20057;-42
2023/01/06 04:27:51;;;;;;;5.05;1.73;;;;;;;13.75;68.04;101477.00;5005295;28;20042;-42
2023/01/06 04:30:17;;;;;;;3.63;1.60;;;;;;;13.71;68.23;101485.72;5008493;28;20042;-42
2023/01/06 04:32:43;;;;;;;3.55;1.50;;;;;;;14.00;67.36;101483.38;5004858;28;20044;-42
2023/01/06 04:35:08;;;;;;;4.90;1.50;;;;;;;13.69;68.12;101490.94;5007227;28;20034;-40
2023/01/06 04:37:34;;;;;;;4.53;1.70;;;;;;;13.85;67.90;101475.34;5008193;28;20037;-42
2023/01/06 04:39:59;;;;;;;4.63;1.50;;;;;;;13.97;67.67;101475.47;5004269;28;20057;-42
2023/01/06 04:42:25;;;;;;;2.67;1.50;;;;;;;14.11;67.76;101484.34;5007646;28;20124;-44
2023/01/06 04:44:50;;;;;;;3.85;1.63;;;;;;;13.36;69.59;101482.69;5004595;28;20109;-43
2023/01/06 04:47:16;;;;;;;2.80;1.58;;;;;;;13.88;68.37;101478.00;5008444;28;20030;-40
2023/01/06 04:49:41;;;;;;;4.13;1.45;;;;;;;14.14;68.31;101469.53;5004596;28;20591;-41
2023/01/06 04:52:07;;;;;;;2.92;1.50;;;;;;;13.74;70.53;101483.13;5007358;28;20516;-43
2023/01/06 04:54:33;;;;;;;3.28;1.48;;;;;;;14.03;69.98;101460.66;5007303;28;20088;-50
2023/01/06 04:56:59;;;;;;;4.18;1.70;;;;;;;13.65;71.69;101465.56;5000632;28;20030;-40
2023/01/06 04:59:24;;;;;;;3.30;1.70;;;;;;;13.78;71.24;101466.56;5005552;28;20107;-43
2023/01/06 05:01:49;;;;;;;5.65;1.70;;;;;;;13.72;71.56;101463.91;5001333;28;20079;-41
2023/01/06 05:04:14;;;;;;;4.70;1.58;;;;;;;13.44;72.48;101462.72;5006146;28;20065;-42
2023/01/06 05:06:40;;;;;;;3.78;1.60;;;;;;;13.53;72.45;101465.44;5003604;28;20050;-40
2023/01/06 05:09:06;;;;;;;6.43;1.80;;;;;;;13.35;73.39;101460.00;5006584;28;20060;-42
2023/01/06 05:11:31;;;;;;;3.40;1.48;;;;;;;13.67;72.27;101453.34;5005774;28;20042;-41
2023/01/06 05:13:57;;;;;;;3.42;1.65;;;;;;;13.23;73.92;101455.50;5003258;28;20065;-42
2023/01/06 05:16:27;;;;;;;2.92;1.63;;;;;;;13.69;72.44;101463.84;5005956;28;20026;-41
2023/01/06 05:18:53;;;;;;;3.35;1.80;;;;;;;13.46;73.26;101462.75;5001177;28;20045;-41
2023/01/06 05:21:19;;;;;;;3.10;1.70;;;;;;;13.50;73.06;101467.13;5004922;28;20061;-47
2023/01/06 05:23:44;;;;;;;2.85;1.90;;;;;;;13.24;74.01;101444.16;5001888;28;20065;-44
2023/01/06 05:26:15;;;;;;;5.22;2.00;;;;;;;13.09;74.11;101438.72;5005683;28;20037;-44
2023/01/06 05:28:40;;;;;;;3.90;1.90;;;;;;;13.29;74.58;101460.81;5001924;28;20045;-41
2023/01/06 05:31:06;;;;;;;3.88;2.00;;;;;;;13.26;74.10;101458.16;5005470;28;20026;-40
2023/01/06 05:33:32;;;;;;;4.30;2.08;;;;;;;13.63;73.26;101469.03;5008385;28;20026;-41
2023/01/06 05:36:01;;;;;;;4.65;2.10;;;;;;;13.58;73.52;101462.88;5004859;28;20467;-41
2023/01/06 05:38:27;;;;;;;3.45;1.98;;;;;;;13.19;74.55;101460.66;5005671;28;20034;-41
2023/01/06 05:40:53;;;;;;;4.38;2.08;;;;;;;13.36;74.06;101465.25;5003429;28;20042;-41
2023/01/06 05:43:20;;;;;;;3.22;2.13;;;;;;;13.54;74.13;101459.31;5007656;28;20065;-41
2023/01/06 05:45:45;;;;;;;4.07;2.20;;;;;;;13.24;74.73;101469.44;5002815;28;20042;-41
2023/01/06 05:48:11;;;;;;;4.78;2.17;;;;;;;12.92;76.15;101471.66;5007196;28;20088;-44
2023/01/06 05:50:36;;;;;;;3.08;2.30;;;;;;;13.53;74.31;101460.22;5000493;28;20578;-44
2023/01/06 05:53:01;;;;;;;3.08;2.00;;;;;;;13.50;74.21;101473.25;5004924;28;20090;-40
2023/01/06 05:55:27;;;;;;;4.00;1.92;;;;;;;13.71;73.98;101467.38;5004937;28;20112;-40
2023/01/06 05:57:52;;;;;;;2.58;2.10;;;;;;;13.37;74.90;101460.88;5001547;28;20038;-42
2023/01/06 06:00:17;;;;;;;3.72;1.98;;;;;;;13.31;75.25;101461.69;5004052;28;20586;-42
2023/01/06 06:02:43;;;;;;;5.43;2.20;;;;;;;13.45;74.80;101468.84;5000537;28;20038;-41
2023/01/06 06:05:09;;;;;;;3.97;2.10;;;;;;;13.52;74.84;101473.28;5004926;28;20061;-44
2023/01/06 06:07:34;;;;;;;4.30;2.00;;;;;;;13.02;76.79;101469.16;5004165;28;20146;-41
2023/01/06 06:09:59;;;;;;;3.53;2.10;;;;;;;13.44;75.68;101481.03;5002005;28;20136;-42
2023/01/06 06:12:25;;;;;;;5.95;2.30;;;;;;;12.82;77.66;101488.06;5004235;28;20083;-43
2023/01/06 06:14:50;;;;;;;4.63;1.90;;;;;;;13.19;76.81;101499.94;5001068;28;20033;-40
2023/01/06 06:17:15;;;;;;;6.30;2.20;;;;;;;13.15;77.53;101519.97;5005388;28;20034;-40
2023/01/06 06:19:41;;;;;;;4.55;2.13;;;;;;;13.02;77.80;101533.72;5001414;28;20171;-44
2023/01/06 06:22:06;;;;;;;4.88;2.50;;;;;;;13.04;78.03;101536.38;5004970;28;20121;-40
2023/01/06 06:24:32;;;;;;;2.95;1.80;;;;;;;13.15;77.88;101529.56;5007199;28;20552;-40
2023/01/06 06:26:57;;;;;;;3.25;2.10;;;;;;;12.85;78.89;101538.72;5002615;28;20049;-41
2023/01/06 06:29:22;;;;;;;3.38;1.92;;;;;;;12.75;79.81;101536.81;5006312;28;20055;-40
2023/01/06 06:31:48;;;;;;;4.35;2.35;;;;;;;12.68;79.61;101534.09;5000815;28;20542;-42
2023/01/06 06:34:13;;;;;;;4.70;2.58;;;;;;;12.74;79.74;101532.47;5004838;28;20625;-45
2023/01/06 06:36:38;;;;;;;4.32;2.67;;;;;;;12.93;78.89;101538.81;5002999;28;20440;-42
2023/01/06 06:39:04;;;;;;;4.72;2.63;;;;;;;13.08;78.18;101535.53;5009154;28;20037;-41
2023/01/06 06:41:29;;;;;;;5.32;2.45;;;;;;;13.25;77.44;101539.28;5007896;28;20048;-40
2023/01/06 06:43:55;;;;;;;5.03;2.50;;;;;;;12.96;77.99;101560.69;5005481;28;21937;-41
2023/01/06 06:46:21;;;;;;;4.65;2.40;;;;;;;13.05;78.18;101546.88;5007958;28;20066;-41
2023/01/06 06:48:48;;;;;;;4.30;1.90;;;;;;;12.96;77.79;101551.97;5005604;28;20038;-42
2023/01/06 06:51:16;;;;;;;6.88;2.00;;;;;;;12.91;77.83;101554.53;5007059;28;20034;-41
2023/01/06 06:53:42;;;;;;;6.35;1.85;;;;;;;13.08;76.82;101553.88;5004634;28;20064;-41
2023/01/06 06:56:09;;;;;;;5.80;1.90;;;;;;;13.24;76.61;101572.44;5007669;28;20073;-42
2023/01/06 06:58:35;;;;;;;7.72;2.05;;;;;;;13.42;76.01;101565.72;5007327;28;20033;-42
2023/01/06 07:01:09;;;;;;;5.15;1.90;;;;;;;13.10;76.74;101567.88;4998655;28;20068;-44
2023/01/06 07:03:35;;;;;;;6.70;2.05;;;;;;;12.85;77.52;101579.72;5001184;28;20506;-52
2023/01/06 07:06:02;;;;;;;7.53;2.03;;;;;;;12.86;76.88;101566.66;5002911;28;20100;-41
2023/01/06 07:08:28;;;;;;;6.53;1.70;;;;;;;12.90;76.90;101571.06;5003242;28;20080;-42
2023/01/06 07:10:53;;;;;;;7.55;1.60;;;;;;;12.96;76.11;101579.00;4998600;28;20034;-41
2023/01/06 07:13:19;;;;;;;8.82;1.95;;;;;;;13.28;75.38;101582.13;5003395;28;20030;-41
2023/01/06 07:15:44;;;;;;;10.65;2.08;;;;;;;12.93;76.31;101594.66;4999051;28;20502;-43
2023/01/06 07:18:09;;;;;;;10.45;1.83;;;;;;;12.99;76.11;101596.50;5003114;28;20489;-39
2023/01/06 07:20:36;;;;;;;14.00;2.17;;;;;;;13.05;75.93;101608.81;4999528;28;20037;-54
2023/01/06 07:23:03;;;;;;;11.80;1.60;;;;;;;12.93;75.64;101615.59;5002256;28;20121;-42
2023/01/06 07:25:29;;;;;;;14.85;2.20;;;;;;;13.10;75.17;101621.09;5003109;28;20625;-42
2023/01/06 07:27:56;;;;;;;10.02;2.00;;;;;;;12.58;75.52;101646.41;4999223;28;20498;-41
2023/01/06 07:30:22;;;;;;;10.93;1.85;;;;;;;12.84;74.93;101631.16;5002526;28;20510;-38
2023/01/06 07:32:48;;;;;;;10.88;1.60;;;;;;;12.84;75.21;101627.66;4999044;28;20038;-41
2023/01/06 07:35:14;;;;;;;10.55;1.80;;;;;;;13.28;73.76;101634.50;5003579;28;20117;-44
2023/01/06 07:37:39;;;;;;;12.52;1.63;;;;;;;13.10;74.02;101623.72;5000336;28;20038;-43
2023/01/06 07:40:05;;;;;;;14.52;1.55;;;;;;;12.85;73.88;101638.16;5003754;28;20048;-41
2023/01/06 07:42:30;;;;;;;9.52;1.80;;;;;;;13.04;72.82;101639.34;5006627;28;20164;-42
2023/01/06 07:44:55;;;;;;;13.90;1.60;;;;;;;12.63;73.60;101641.25;5003630;28;20053;-41
2023/01/06 07:47:21;;;;;;;15.18;1.75;;;;;;;12.65;73.29;101646.53;5007629;28;20128;-42
2023/01/06 07:49:46;;;;;;;10.82;1.90;;;;;;;12.85;72.37;101660.84;5000801;28;20367;-41
2023/01/06 07:52:11;;;;;;;10.35;1.48;;;;;;;12.65;72.78;101644.78;5002992;28;20026;-43
2023/01/06 07:54:37;;;;;;;10.93;1.55;;;;;;;12.55;72.33;101655.97;4999780;28;20042;-47
2023/01/06 07:57:03;;;;;;;14.00;1.80;;;;;;;12.79;71.27;101643.31;5003535;28;20049;-42
2023/01/06 07:59:28;;;;;;;13.02;1.65;;;;;;;12.37;72.19;101646.06;5001577;28;20406;-41
2023/01/06 08:01:54;;;;;;;13.68;1.50;;;;;;;12.74;70.71;101655.44;4999117;28;24382;-41
2023/01/06 08:04:19;;;;;;;9.15;1.27;;;;;;;12.45;70.86;101654.00;5003304;28;20088;-41
2023/01/06 08:06:45;;;;;;;7.90;1.30;;;;;;;12.36;70.68;101667.81;4999779;28;20037;-43
2023/01/06 08:09:10;;;;;;;8.20;1.27;;;;;;;12.84;69.44;101675.66;5003546;28;20494;-42
2023/01/06 08:11:35;;;;;;;12.25;1.58;;;;;;;12.46;70.13;101689.78;5003262;28;20533;-42
2023/01/06 08:14:00;;;;;;;7.60;1.17;;;;;;;12.32;70.52;101694.75;4999560;28;20034;-44
2023/01/06 08:16:26;;;;;;;8.32;1.10;;;;;;;12.45;69.94;101698.47;5003575;28;20030;-40
2023/01/06 08:18:51;;;;;;;6.32;1.13;;;;;;;12.38;69.77;101710.53;4999970;28;20104;-41
2023/01/06 08:21:16;;;;;;;5.70;1.13;;;;;;;12.55;69.58;101711.78;5002876;28;20049;-41
2023/01/06 08:23:42;;;;;;;9.88;1.40;;;;;;;12.50;69.45;101713.41;4999355;28;20495;-43
2023/01/06 08:26:10;;;;;;;9.07;1.42;;;;;;;12.34;70.15;101723.53;5003143;28;20117;-44
2023/01/06 08:28:35;;;;;;;8.05;1.08;;;;;;;12.52;69.50;101716.94;5000190;28;20072;-44
2023/01/06 08:31:01;;;;;;;8.93;1.45;;;;;;;12.25;69.90;101731.22;5001643;28;20066;-41
2023/01/06 08:33:26;;;;;;;10.80;1.25;;;;;;;12.18;69.66;101728.47;5003089;28;20038;-42
2023/01/06 08:36:01;;;;;;;7.85;1.30;;;;;;;12.35;69.19;101722.69;4998804;28;20037;-44
2023/01/06 08:38:27;;;;;;;6.35;1.35;;;;;;;12.44;68.38;101728.97;5002934;28;20034;-40
2023/01/06 08:40:53;;;;;;;8.55;1.17;;;;;;;12.51;67.94;101727.34;4998940;28;20030;-39
2023/01/06 08:43:18;;;;;;;9.52;1.63;;;;;;;12.67;67.56;101728.53;5002908;28;20092;-40
2023/01/06 08:45:44;;;;;;;7.97;1.35;;;;;;;12.64;67.43;101731.97;4999387;28;20041;-42
2023/01/06 08:48:09;;;;;;;7.25;1.73;;;;;;;12.83;66.67;101731.47;5003102;28;20088;-41
2023/01/06 08:50:38;;;;;;;7.25;1.23;;;;;;;12.66;67.43;101738.13;5001605;28;20038;-49
2023/01/06 08:53:03;;;;;;;6.43;1.15;;;;;;;12.58;67.19;101743.22;5008299;28;20065;-41
2023/01/06 08:55:28;;;;;;;7.20;1.00;;;;;;;12.62;66.80;101743.28;5010640;28;20053;-41
2023/01/06 08:57:53;;;;;;;8.38;1.13;;;;;;;12.17;67.88;101739.78;5006661;28;20490;-42
2023/01/06 09:00:19;;;;;;;7.70;1.05;;;;;;;12.19;68.26;101753.78;5008859;28;20042;-40
2023/01/06 09:02:44;;;;;;;7.50;1.38;;;;;;;12.50;67.11;101749.16;5003894;28;20461;-41
2023/01/06 09:05:09;;;;;;;10.18;1.08;;;;;;;12.64;66.36;101752.00;5007143;28;20490;-43
2023/01/06 09:07:35;;;;;;;9.35;1.08;;;;;;;12.20;66.71;101770.31;5003321;28;20262;-57
2023/01/06 09:10:00;;;;;;;11.77;1.38;;;;;;;12.58;66.25;101776.31;5005432;28;20498;-42
2023/01/06 09:12:25;;;;;;;5.10;1.25;;;;;;;12.56;66.28;101778.06;5005824;28;20064;-46
2023/01/06 09:14:51;;;;;;;6.18;1.52;;;;;;;12.45;66.45;101785.66;5003210;28;20038;-44
2023/01/06 09:17:16;;;;;;;5.85;1.00;;;;;;;12.31;66.30;101788.88;5008008;28;20034;-42
2023/01/06 09:19:41;;;;;;;7.05;1.27;;;;;;;12.64;65.68;101783.41;5024193;23;20048;-41
2023/01/06 09:22:07;;;;;;;6.13;1.20;;;;;;;12.43;65.85;101783.88;5004771;28;20388;-42
2023/01/06 09:24:32;;;;;;;8.77;1.30;;;;;;;12.91;64.47;101781.31;5005547;28;20046;-46
2023/01/06 09:26:57;;;;;;;6.72;1.20;;;;;;;12.60;65.87;101787.72;5001355;28;20030;-42
2023/01/06 09:29:23;;;;;;;9.20;1.52;;;;;;;12.68;65.35;101793.09;5004858;28;20045;-45
2023/01/06 09:31:48;;;;;;;8.07;1.27;;;;;;;12.38;65.99;101793.38;5000048;28;20034;-40
2023/01/06 09:34:14;;;;;;;7.25;1.40;;;;;;;12.53;65.56;101780.59;5004458;28;20045;-42
2023/01/06 09:36:39;;;;;;;14.75;1.90;;;;;;;12.55;65.04;101765.81;5001035;28;20045;-42
2023/01/06 09:39:04;;;;;;;6.07;1.83;;;;;;;12.58;65.05;101768.47;5004384;28;20616;-41
2023/01/06 09:41:39;;;;;;;11.70;1.98;;;;;;;12.65;65.38;101779.94;5003574;28;20038;-40
2023/01/06 09:44:10;;;;;;;6.53;1.50;;;;;;;12.58;65.36;101774.59;5000948;28;20038;-41
2023/01/06 09:46:39;;;;;;;9.63;1.50;;;;;;;12.85;64.77;101797.81;5004362;28;20041;-41
2023/01/06 09:49:38;;;;;;;8.35;1.30;;;;;;;12.93;64.08;101800.53;5000742;28;20073;-43
2023/01/06 09:52:12;;;;;;;5.95;1.02;;;;;;;13.05;63.79;101802.53;4998808;28;20080;-41
2023/01/06 09:54:44;;;;;;;;;;;;;;;12.90;63.96;101801.38;5001474;28;20533;-46
2023/01/06 09:57:15;;;;;;;7.63;1.25;;;;;;;13.02;63.75;101799.00;5004538;28;19956;-40
2023/01/06 09:59:50;;;;;;;7.53;1.30;;;;;;;12.83;64.37;101794.25;4999043;28;20045;-40
2023/01/06 10:02:37;;;;;;;6.30;1.00;;;;;;;13.04;63.58;101806.00;5002694;28;20030;-43
2023/01/06 10:05:18;;;;;;;7.78;0.90;;;;;;;13.46;62.55;101801.53;5000471;28;20033;-44
2023/01/06 10:07:59;;;;;;;7.53;0.93;;;;;;;13.17;63.64;101815.88;5000474;28;20034;-44
2023/01/06 10:10:39;;;;;;;8.75;1.10;;;;;;;13.48;62.72;101818.13;5003630;28;20124;-43
2023/01/06 10:13:38;;;;;;;9.32;1.20;;;;;;;13.22;63.58;101817.72;5000323;28;20372;-40
2023/01/06 10:16:33;;;;;;;6.55;1.50;;;;;;;13.30;63.75;101816.09;5001529;28;20065;-46
2023/01/06 10:19:23;;;;;;;5.45;1.15;;;;;;;13.25;64.04;101811.63;5001745;28;20061;-42
2023/01/06 10:22:15;;;;;;;4.93;1.10;;;;;;;13.35;63.55;101818.81;4999997;28;20151;-40
2023/01/06 10:25:06;;;;;;;8.57;1.17;;;;;;;13.31;63.81;101825.72;5001266;28;20083;-41
2023/01/06 10:27:39;;;;;;;4.22;1.10;;;;;;;13.49;62.99;101814.66;4994946;28;20045;-45
2023/01/06 10:30:19;;;;;;;7.15;1.20;;;;;;;13.60;62.57;101814.84;5002315;28;20041;-45
2023/01/06 10:32:48;;;;;;;7.65;1.33;;;;;;;13.48;63.43;101814.66;5003241;28;20092;-42
2023/01/06 10:35:16;;;;;;;5.15;1.23;;;;;;;13.52;63.12;101817.34;5007640;28;20406;-42
2023/01/06 10:37:45;;;;;;;5.60;0.90;;;;;;;13.24;62.23;101822.94;5005456;28;20051;-41
2023/01/06 10:40:17;;;;;;;4.43;0.90;;;;;;;13.39;62.13;101820.63;5005966;28;20038;-41
2023/01/06 10:42:57;;;;;;;8.30;1.33;;;;;;;13.32;62.18;101823.97;4999329;28;20046;-41
2023/01/06 10:45:35;;;;;;;7.25;1.35;;;;;;;13.09;62.89;101830.50;5003485;28;20076;-46
2023/01/06 10:48:02;;;;;;;4.20;1.05;;;;;;;13.09;62.33;101823.53;4999937;28;20418;-41
2023/01/06 10:50:28;;;;;;;8.35;1.33;;;;;;;13.32;61.69;101822.25;5002841;28;20422;-43
2023/01/06 10:52:53;;;;;;;4.80;1.10;;;;;;;13.18;60.89;101820.22;4999950;28;20041;-46
2023/01/06 10:55:27;;;;;;;6.45;1.40;;;;;;;13.26;60.36;101827.38;5003911;28;20056;-42
2023/01/06 10:57:55;;;;;;;3.95;0.93;;;;;;;13.30;60.76;101828.28;4999781;28;20034;-43
2023/01/06 11:00:23;;;;;;;7.32;1.50;;;;;;;13.56;60.09;101828.75;5003386;28;20061;-40
2023/01/06 11:02:53;;;;;;;4.65;0.95;;;;;;;13.53;59.58;101820.84;4999803;28;20482;-45
2023/01/06 11:05:25;;;;;;;5.10;1.13;;;;;;;13.55;59.07;101819.13;5003695;28;20104;-42
2023/01/06 11:07:56;;;;;;;5.60;0.88;;;;;;;13.66;59.34;101817.56;4999616;28;20041;-42
2023/01/06 11:10:43;;;;;;;6.22;0.80;;;;;;;13.37;59.20;101812.72;5002527;28;20030;-42
2023/01/06 11:13:40;;;;;;;7.53;1.00;;;;;;;13.97;58.61;101813.63;4999524;28;20514;-42
2023/01/06 11:16:17;;;;;;;5.28;1.00;;;;;;;13.90;58.19;101814.44;4995115;28;20044;-42
2023/01/06 11:18:42;;;;;;;7.18;0.90;;;;;;;13.91;58.90;101818.78;4997921;28;20115;-44
2023/01/06 11:21:11;;;;;;;7.22;1.02;;;;;;;13.74;59.21;101811.56;5002425;28;20522;-42
2023/01/06 11:23:39;;;;;;;6.55;1.10;;;;;;;14.16;59.18;101813.94;4999284;28;20453;-42
2023/01/06 11:26:04;;;;;;;6.95;0.95;;;;;;;13.89;60.15;101808.31;5003046;28;20100;-42
2023/01/06 11:28:29;;;;;;;7.78;1.23;;;;;;;14.00;59.63;101811.97;5003033;28;20513;-42
2023/01/06 11:31:14;;;;;;;4.90;0.90;;;;;;;14.32;58.86;101809.78;4998592;28;20057;-42
2023/01/06 11:33:56;;;;;;;5.38;0.90;;;;;;;14.33;59.49;101802.81;4998179;28;20038;-41
2023/01/06 11:36:24;;;;;;;9.95;1.17;;;;;;;14.37;58.96;101808.13;5003334;28;20029;-45
2023/01/06 11:39:11;;;;;;;7.72;1.25;;;;;;;13.99;59.98;101804.06;4999777;28;20057;-43